sensor_id;sensor_type;location;lat;lon;timestamp;temperature;humidity
19224;DHT22;9746;47.180;9.776;2024-02-26T11:56:28;13.30;99.90
19224;DHT22;9746;47.180;9.776;2024-02-26T11:58:59;13.40;99.90
19224;DHT22;9746;47.180;9.776;2024-02-26T12:01:46;13.50;99.90
19224;DHT22;9746;47.180;9.776;2024-02-26T12:04:18;13.60;99.90
19224;DHT22;9746;47.180;9.776;2024-02-26T12:07:01;13.60;99.90
19224;DHT22;9746;47.180;9.776;2024-02-26T12:09:34;13.60;97.50
19224;DHT22;9746;47.180;9.776;2024-02-26T12:12:18;13.50;95.80
19224;DHT22;9746;47.180;9.776;2024-02-26T12:14:52;13.50;94.90
19224;DHT22;9746;47.180;9.776;2024-02-26T12:17:26;13.50;94.90
19224;DHT22;9746;47.180;9.776;2024-02-26T12:19:53;13.60;94.30
19224;DHT22;9746;47.180;9.776;2024-02-26T12:22:28;13.70;92.90
19224;DHT22;9746;47.180;9.776;2024-02-26T12:24:59;13.80;92.80
19224;DHT22;9746;47.180;9.776;2024-02-26T12:30:52;14.00;93.00
19224;DHT22;9746;47.180;9.776;2024-02-26T12:33:25;14.10;92.60
19224;DHT22;9746;47.180;9.776;2024-02-26T12:35:53;14.30;92.70
19224;DHT22;9746;47.180;9.776;2024-02-26T12:38:22;14.30;93.00
19224;DHT22;9746;47.180;9.776;2024-02-26T12:40:50;14.30;93.20
19224;DHT22;9746;47.180;9.776;2024-02-26T12:43:35;14.40;92.60
19224;DHT22;9746;47.180;9.776;2024-02-26T12:46:05;14.40;93.00
19224;DHT22;9746;47.180;9.776;2024-02-26T12:48:32;14.40;92.60
19224;DHT22;9746;47.180;9.776;2024-02-26T12:51:00;14.40;92.80
19224;DHT22;9746;47.180;9.776;2024-02-26T12:53:28;14.40;93.30
19224;DHT22;9746;47.180;9.776;2024-02-26T12:55:56;14.40;94.00
19224;DHT22;9746;47.180;9.776;2024-02-26T12:58:32;14.40;93.70
19224;DHT22;9746;47.180;9.776;2024-02-26T13:01:00;14.40;94.00
19224;DHT22;9746;47.180;9.776;2024-02-26T13:03:39;14.40;94.70
19224;DHT22;9746;47.180;9.776;2024-02-26T13:06:07;14.40;94.60
19224;DHT22;9746;47.180;9.776;2024-02-26T13:08:56;14.40;95.00
19224;DHT22;9746;47.180;9.776;2024-02-26T13:11:24;14.40;95.20
19224;DHT22;9746;47.180;9.776;2024-02-26T13:13:51;14.40;95.40
19224;DHT22;9746;47.180;9.776;2024-02-26T13:16:19;14.30;94.50
19224;DHT22;9746;47.180;9.776;2024-02-26T13:18:51;14.40;93.80
19224;DHT22;9746;47.180;9.776;2024-02-26T13:21:19;14.30;94.50
19224;DHT22;9746;47.180;9.776;2024-02-26T13:23:54;14.30;95.10
19224;DHT22;9746;47.180;9.776;2024-02-26T13:26:22;14.20;95.80
19224;DHT22;9746;47.180;9.776;2024-02-26T13:29:00;14.20;96.10
19224;DHT22;9746;47.180;9.776;2024-02-26T13:31:29;14.20;95.60
19224;DHT22;9746;47.180;9.776;2024-02-26T13:34:03;14.20;98.10
19224;DHT22;9746;47.180;9.776;2024-02-26T13:36:30;14.20;98.60
19224;DHT22;9746;47.180;9.776;2024-02-26T13:38:59;14.30;98.90
19224;DHT22;9746;47.180;9.776;2024-02-26T13:41:27;14.30;99.10
19224;DHT22;9746;47.180;9.776;2024-02-26T13:43:56;14.20;98.80
19224;DHT22;9746;47.180;9.776;2024-02-26T13:46:25;14.20;98.70
19224;DHT22;9746;47.180;9.776;2024-02-26T13:48:56;14.10;99.60
19224;DHT22;9746;47.180;9.776;2024-02-26T13:51:24;14.10;98.90
19224;DHT22;9746;47.180;9.776;2024-02-26T13:53:51;14.20;98.60
19224;DHT22;9746;47.180;9.776;2024-02-26T13:56:19;14.20;99.10
19224;DHT22;9746;47.180;9.776;2024-02-26T13:58:47;14.20;99.50
19224;DHT22;9746;47.180;9.776;2024-02-26T14:01:15;14.10;99.70
19224;DHT22;9746;47.180;9.776;2024-02-26T14:03:42;14.20;99.70
19224;DHT22;9746;47.180;9.776;2024-02-26T14:06:10;14.10;98.40
19224;DHT22;9746;47.180;9.776;2024-02-26T14:08:42;14.10;98.60
19224;DHT22;9746;47.180;9.776;2024-02-26T14:11:09;14.00;99.10
19224;DHT22;9746;47.180;9.776;2024-02-26T14:13:37;14.00;99.30
19224;DHT22;9746;47.180;9.776;2024-02-26T14:16:04;14.10;98.60
19224;DHT22;9746;47.180;9.776;2024-02-26T14:18:35;14.10;99.40
19224;DHT22;9746;47.180;9.776;2024-02-26T14:21:03;14.20;98.90
19224;DHT22;9746;47.180;9.776;2024-02-26T14:23:32;14.10;98.80
19224;DHT22;9746;47.180;9.776;2024-02-26T14:26:02;13.90;98.20
19224;DHT22;9746;47.180;9.776;2024-02-26T14:28:29;13.80;98.40
19224;DHT22;9746;47.180;9.776;2024-02-26T14:30:57;13.80;98.20
19224;DHT22;9746;47.180;9.776;2024-02-26T14:33:26;13.80;98.20
19224;DHT22;9746;47.180;9.776;2024-02-26T14:35:53;13.90;98.50
19224;DHT22;9746;47.180;9.776;2024-02-26T14:38:25;13.90;98.20
19224;DHT22;9746;47.180;9.776;2024-02-26T14:40:53;14.00;97.40
19224;DHT22;9746;47.180;9.776;2024-02-26T14:43:26;14.00;96.90
19224;DHT22;9746;47.180;9.776;2024-02-26T14:45:53;14.10;96.80
19224;DHT22;9746;47.180;9.776;2024-02-26T14:48:44;14.00;97.00
19224;DHT22;9746;47.180;9.776;2024-02-26T14:51:11;13.90;96.80
19224;DHT22;9746;47.180;9.776;2024-02-26T14:53:39;13.80;96.90
19224;DHT22;9746;47.180;9.776;2024-02-26T14:56:07;13.80;97.00
19224;DHT22;9746;47.180;9.776;2024-02-26T14:58:38;13.80;97.30
19224;DHT22;9746;47.180;9.776;2024-02-26T15:01:05;13.80;97.70
19224;DHT22;9746;47.180;9.776;2024-02-26T15:03:45;13.80;97.50
19224;DHT22;9746;47.180;9.776;2024-02-26T15:06:13;13.80;97.70
19224;DHT22;9746;47.180;9.776;2024-02-26T15:08:42;13.80;98.80
19224;DHT22;9746;47.180;9.776;2024-02-26T15:11:09;13.70;99.30
19224;DHT22;9746;47.180;9.776;2024-02-26T15:13:43;13.70;99.60
19224;DHT22;9746;47.180;9.776;2024-02-26T15:16:17;13.60;99.10
19224;DHT22;9746;47.180;9.776;2024-02-26T15:18:46;13.60;99.50
19224;DHT22;9746;47.180;9.776;2024-02-26T15:21:14;13.50;99.40
19224;DHT22;9746;47.180;9.776;2024-02-26T15:23:43;13.40;99.20
19224;DHT22;9746;47.180;9.776;2024-02-26T15:26:11;13.40;99.50
19224;DHT22;9746;47.180;9.776;2024-02-26T15:28:40;13.40;99.00
19224;DHT22;9746;47.180;9.776;2024-02-26T15:31:09;13.40;99.10
19224;DHT22;9746;47.180;9.776;2024-02-26T15:33:37;13.40;98.90
19224;DHT22;9746;47.180;9.776;2024-02-26T15:36:07;13.40;98.90
19224;DHT22;9746;47.180;9.776;2024-02-26T15:38:37;13.40;99.10
19224;DHT22;9746;47.180;9.776;2024-02-26T15:41:11;13.40;99.10
19224;DHT22;9746;47.180;9.776;2024-02-26T15:43:42;13.40;99.60
19224;DHT22;9746;47.180;9.776;2024-02-26T15:46:11;13.50;99.80
19224;DHT22;9746;47.180;9.776;2024-02-26T15:48:39;13.50;99.10
19224;DHT22;9746;47.180;9.776;2024-02-26T15:51:07;13.50;99.00
19224;DHT22;9746;47.180;9.776;2024-02-26T15:53:35;13.20;99.90
19224;DHT22;9746;47.180;9.776;2024-02-26T15:56:02;13.10;99.90
19224;DHT22;9746;47.180;9.776;2024-02-26T15:58:29;13.00;99.90
19224;DHT22;9746;47.180;9.776;2024-02-26T16:00:57;12.90;99.90
19224;DHT22;9746;47.180;9.776;2024-02-26T16:03:26;12.90;99.90
19224;DHT22;9746;47.180;9.776;2024-02-26T16:05:54;12.90;99.90
19224;DHT22;9746;47.180;9.776;2024-02-26T16:08:23;12.80;99.90
19224;DHT22;9746;47.180;9.776;2024-02-26T16:10:50;12.70;99.90
19224;DHT22;9746;47.180;9.776;2024-02-26T16:13:20;12.60;99.90
19224;DHT22;9746;47.180;9.776;2024-02-26T16:15:55;12.50;99.60
19224;DHT22;9746;47.180;9.776;2024-02-26T16:18:31;12.50;99.80
19224;DHT22;9746;47.180;9.776;2024-02-26T16:20:59;12.40;99.90
19224;DHT22;9746;47.180;9.776;2024-02-26T16:23:46;12.40;99.90
19224;DHT22;9746;47.180;9.776;2024-02-26T16:26:14;12.40;99.90
19224;DHT22;9746;47.180;9.776;2024-02-26T16:28:42;12.30;99.90
19224;DHT22;9746;47.180;9.776;2024-02-26T16:31:10;12.30;99.90
19224;DHT22;9746;47.180;9.776;2024-02-26T16:33:39;12.10;99.90
19224;DHT22;9746;47.180;9.776;2024-02-26T16:36:09;12.10;99.90
19224;DHT22;9746;47.180;9.776;2024-02-26T16:38:45;12.00;99.90
19224;DHT22;9746;47.180;9.776;2024-02-26T16:41:13;11.90;99.90
19224;DHT22;9746;47.180;9.776;2024-02-26T16:43:42;11.80;99.90
19224;DHT22;9746;47.180;9.776;2024-02-26T16:46:10;11.70;99.90
19224;DHT22;9746;47.180;9.776;2024-02-26T16:48:43;11.60;99.90
19224;DHT22;9746;47.180;9.776;2024-02-26T16:51:10;11.50;99.90
19224;DHT22;9746;47.180;9.776;2024-02-26T16:53:47;11.40;99.90
19224;DHT22;9746;47.180;9.776;2024-02-26T16:56:16;11.20;99.90
19224;DHT22;9746;47.180;9.776;2024-02-26T16:58:45;11.20;99.90
19224;DHT22;9746;47.180;9.776;2024-02-26T17:01:12;11.10;99.90
19224;DHT22;9746;47.180;9.776;2024-02-26T17:03:40;11.00;99.90
19224;DHT22;9746;47.180;9.776;2024-02-26T17:06:10;10.90;99.90
19224;DHT22;9746;47.180;9.776;2024-02-26T17:08:38;10.80;99.90
19224;DHT22;9746;47.180;9.776;2024-02-26T17:11:07;10.70;99.90
19224;DHT22;9746;47.180;9.776;2024-02-26T17:13:35;10.60;99.90
19224;DHT22;9746;47.180;9.776;2024-02-26T17:16:03;10.40;99.90
19224;DHT22;9746;47.180;9.776;2024-02-26T17:18:34;10.30;99.90
19224;DHT22;9746;47.180;9.776;2024-02-26T17:21:03;10.10;99.90
19224;DHT22;9746;47.180;9.776;2024-02-26T17:23:42;9.90;99.90
19224;DHT22;9746;47.180;9.776;2024-02-26T17:26:18;9.80;99.90
19224;DHT22;9746;47.180;9.776;2024-02-26T17:28:49;9.70;99.90
19224;DHT22;9746;47.180;9.776;2024-02-26T17:31:17;9.70;99.90
19224;DHT22;9746;47.180;9.776;2024-02-26T17:33:45;9.70;99.90
19224;DHT22;9746;47.180;9.776;2024-02-26T17:36:13;9.60;99.90
19224;DHT22;9746;47.180;9.776;2024-02-26T17:38:43;9.50;99.90
19224;DHT22;9746;47.180;9.776;2024-02-26T17:41:12;9.50;99.90
19224;DHT22;9746;47.180;9.776;2024-02-26T17:43:39;9.50;99.90
19224;DHT22;9746;47.180;9.776;2024-02-26T17:46:07;9.50;99.90
19224;DHT22;9746;47.180;9.776;2024-02-26T17:48:35;9.50;99.90
19224;DHT22;9746;47.180;9.776;2024-02-26T17:51:03;9.50;99.90
19224;DHT22;9746;47.180;9.776;2024-02-26T17:53:44;9.40;99.90
19224;DHT22;9746;47.180;9.776;2024-02-26T17:56:11;9.40;99.90
19224;DHT22;9746;47.180;9.776;2024-02-26T17:58:41;9.40;99.90
19224;DHT22;9746;47.180;9.776;2024-02-26T18:01:09;9.30;99.90
19224;DHT22;9746;47.180;9.776;2024-02-26T18:03:38;9.30;99.90
19224;DHT22;9746;47.180;9.776;2024-02-26T18:06:06;9.20;99.90
19224;DHT22;9746;47.180;9.776;2024-02-26T18:08:34;9.10;99.90
19224;DHT22;9746;47.180;9.776;2024-02-26T18:11:02;9.10;99.90
19224;DHT22;9746;47.180;9.776;2024-02-26T18:13:30;9.00;99.90
19224;DHT22;9746;47.180;9.776;2024-02-26T18:15:58;8.90;99.90
19224;DHT22;9746;47.180;9.776;2024-02-26T18:18:25;8.80;99.90
19224;DHT22;9746;47.180;9.776;2024-02-26T18:21:02;8.80;99.90
19224;DHT22;9746;47.180;9.776;2024-02-26T18:23:30;8.70;99.90
19224;DHT22;9746;47.180;9.776;2024-02-26T18:25:59;8.50;99.90
19224;DHT22;9746;47.180;9.776;2024-02-26T18:28:30;8.50;99.90
19224;DHT22;9746;47.180;9.776;2024-02-26T18:30:58;8.40;99.90
19224;DHT22;9746;47.180;9.776;2024-02-26T18:33:26;8.40;99.90
19224;DHT22;9746;47.180;9.776;2024-02-26T18:36:09;8.40;99.90
19224;DHT22;9746;47.180;9.776;2024-02-26T18:38:50;8.30;99.90
19224;DHT22;9746;47.180;9.776;2024-02-26T18:41:19;8.30;99.90
19224;DHT22;9746;47.180;9.776;2024-02-26T18:43:56;8.30;99.90
19224;DHT22;9746;47.180;9.776;2024-02-26T18:46:23;8.20;99.90
19224;DHT22;9746;47.180;9.776;2024-02-26T18:48:51;8.20;99.90
19224;DHT22;9746;47.180;9.776;2024-02-26T18:51:20;8.10;99.90
19224;DHT22;9746;47.180;9.776;2024-02-26T18:53:50;8.10;99.90
19224;DHT22;9746;47.180;9.776;2024-02-26T18:56:18;8.00;99.90
19224;DHT22;9746;47.180;9.776;2024-02-26T18:58:47;8.00;99.90
19224;DHT22;9746;47.180;9.776;2024-02-26T19:03:52;8.00;99.90
19224;DHT22;9746;47.180;9.776;2024-02-26T19:06:19;8.10;99.90
19224;DHT22;9746;47.180;9.776;2024-02-26T19:08:48;8.00;99.90
19224;DHT22;9746;47.180;9.776;2024-02-26T19:11:16;8.00;99.90
19224;DHT22;9746;47.180;9.776;2024-02-26T19:13:46;7.90;99.90
19224;DHT22;9746;47.180;9.776;2024-02-26T19:16:14;7.90;99.90
19224;DHT22;9746;47.180;9.776;2024-02-26T19:18:42;7.90;99.90
19224;DHT22;9746;47.180;9.776;2024-02-26T19:21:11;7.90;99.90
19224;DHT22;9746;47.180;9.776;2024-02-26T19:23:40;7.80;99.90
19224;DHT22;9746;47.180;9.776;2024-02-26T19:26:08;7.80;99.90
19224;DHT22;9746;47.180;9.776;2024-02-26T19:28:36;7.80;99.90
19224;DHT22;9746;47.180;9.776;2024-02-26T19:31:09;8.00;99.90
19224;DHT22;9746;47.180;9.776;2024-02-26T19:33:38;8.00;99.90
19224;DHT22;9746;47.180;9.776;2024-02-26T19:36:06;8.10;99.90
19224;DHT22;9746;47.180;9.776;2024-02-26T19:38:38;8.20;99.90
19224;DHT22;9746;47.180;9.776;2024-02-26T19:41:09;8.30;99.90
19224;DHT22;9746;47.180;9.776;2024-02-26T19:43:38;8.20;99.90
19224;DHT22;9746;47.180;9.776;2024-02-26T19:46:09;8.20;99.90
19224;DHT22;9746;47.180;9.776;2024-02-26T19:48:41;8.20;99.90
19224;DHT22;9746;47.180;9.776;2024-02-26T19:51:08;8.30;99.90
19224;DHT22;9746;47.180;9.776;2024-02-26T19:53:38;8.20;99.90
19224;DHT22;9746;47.180;9.776;2024-02-26T19:56:06;8.00;99.90
19224;DHT22;9746;47.180;9.776;2024-02-26T19:58:33;8.00;99.90
19224;DHT22;9746;47.180;9.776;2024-02-26T20:01:01;7.80;99.90
19224;DHT22;9746;47.180;9.776;2024-02-26T20:03:29;7.70;99.90
19224;DHT22;9746;47.180;9.776;2024-02-26T20:05:57;7.50;99.90
19224;DHT22;9746;47.180;9.776;2024-02-26T20:08:25;7.50;99.90
19224;DHT22;9746;47.180;9.776;2024-02-26T20:10:55;7.40;99.90
19224;DHT22;9746;47.180;9.776;2024-02-26T20:13:42;7.30;99.90
19224;DHT22;9746;47.180;9.776;2024-02-26T20:16:10;7.20;99.90
19224;DHT22;9746;47.180;9.776;2024-02-26T20:18:38;7.10;99.90
19224;DHT22;9746;47.180;9.776;2024-02-26T20:21:06;6.90;99.90
19224;DHT22;9746;47.180;9.776;2024-02-26T20:23:35;6.70;99.90
19224;DHT22;9746;47.180;9.776;2024-02-26T20:26:06;6.70;99.90
19224;DHT22;9746;47.180;9.776;2024-02-26T20:28:37;6.60;99.90
19224;DHT22;9746;47.180;9.776;2024-02-26T20:31:05;6.50;99.90
19224;DHT22;9746;47.180;9.776;2024-02-26T20:33:34;6.40;99.90
19224;DHT22;9746;47.180;9.776;2024-02-26T20:36:02;6.30;99.90
19224;DHT22;9746;47.180;9.776;2024-02-26T20:38:30;6.30;99.90
19224;DHT22;9746;47.180;9.776;2024-02-26T20:40:59;6.20;99.90
19224;DHT22;9746;47.180;9.776;2024-02-26T20:43:28;6.10;99.90
19224;DHT22;9746;47.180;9.776;2024-02-26T20:45:55;6.10;99.90
19224;DHT22;9746;47.180;9.776;2024-02-26T20:48:23;6.00;99.90
19224;DHT22;9746;47.180;9.776;2024-02-26T20:50:51;6.00;99.90
19224;DHT22;9746;47.180;9.776;2024-02-26T20:53:18;6.00;99.90
19224;DHT22;9746;47.180;9.776;2024-02-26T20:55:46;6.10;99.90
19224;DHT22;9746;47.180;9.776;2024-02-26T20:58:18;6.10;99.90
19224;DHT22;9746;47.180;9.776;2024-02-26T21:00:47;6.00;99.90
19224;DHT22;9746;47.180;9.776;2024-02-26T21:03:17;6.00;99.90
19224;DHT22;9746;47.180;9.776;2024-02-26T21:05:46;6.00;99.90
19224;DHT22;9746;47.180;9.776;2024-02-26T21:08:14;6.00;99.90
19224;DHT22;9746;47.180;9.776;2024-02-26T21:10:42;6.00;99.90
19224;DHT22;9746;47.180;9.776;2024-02-26T21:13:14;6.10;99.90
19224;DHT22;9746;47.180;9.776;2024-02-26T21:15:41;6.10;99.90
19224;DHT22;9746;47.180;9.776;2024-02-26T21:18:16;6.20;99.90
19224;DHT22;9746;47.180;9.776;2024-02-26T21:20:43;6.30;99.90
19224;DHT22;9746;47.180;9.776;2024-02-26T21:23:13;6.40;99.90
19224;DHT22;9746;47.180;9.776;2024-02-26T21:25:41;6.60;99.90
19224;DHT22;9746;47.180;9.776;2024-02-26T21:28:13;6.70;99.90
19224;DHT22;9746;47.180;9.776;2024-02-26T21:30:41;6.90;99.90
19224;DHT22;9746;47.180;9.776;2024-02-26T21:33:11;7.10;99.90
19224;DHT22;9746;47.180;9.776;2024-02-26T21:35:40;7.20;99.90
19224;DHT22;9746;47.180;9.776;2024-02-26T21:38:10;7.30;99.90
19224;DHT22;9746;47.180;9.776;2024-02-26T21:40:38;7.40;99.90
19224;DHT22;9746;47.180;9.776;2024-02-26T21:43:05;7.40;99.90
19224;DHT22;9746;47.180;9.776;2024-02-26T21:45:33;7.50;99.90
19224;DHT22;9746;47.180;9.776;2024-02-26T21:48:03;7.60;99.90
19224;DHT22;9746;47.180;9.776;2024-02-26T21:50:32;7.60;99.90
19224;DHT22;9746;47.180;9.776;2024-02-26T21:53:02;7.50;99.90
19224;DHT22;9746;47.180;9.776;2024-02-26T21:55:33;7.40;99.90
19224;DHT22;9746;47.180;9.776;2024-02-26T21:58:01;7.40;99.90
19224;DHT22;9746;47.180;9.776;2024-02-26T22:00:28;7.50;99.90
19224;DHT22;9746;47.180;9.776;2024-02-26T22:02:55;7.50;99.90
19224;DHT22;9746;47.180;9.776;2024-02-26T22:05:23;7.60;99.90
19224;DHT22;9746;47.180;9.776;2024-02-26T22:07:51;7.60;99.90
19224;DHT22;9746;47.180;9.776;2024-02-26T22:10:28;7.50;99.90
19224;DHT22;9746;47.180;9.776;2024-02-26T22:12:56;7.60;99.90
19224;DHT22;9746;47.180;9.776;2024-02-26T22:15:24;7.60;99.90
19224;DHT22;9746;47.180;9.776;2024-02-26T22:17:52;7.50;99.90
19224;DHT22;9746;47.180;9.776;2024-02-26T22:20:19;7.50;99.90
19224;DHT22;9746;47.180;9.776;2024-02-26T22:22:47;7.50;99.90
19224;DHT22;9746;47.180;9.776;2024-02-26T22:25:15;7.50;99.90
19224;DHT22;9746;47.180;9.776;2024-02-26T22:27:44;7.50;99.90
19224;DHT22;9746;47.180;9.776;2024-02-26T22:30:14;7.50;99.90
19224;DHT22;9746;47.180;9.776;2024-02-26T22:32:43;7.60;99.90
19224;DHT22;9746;47.180;9.776;2024-02-26T22:35:11;7.70;99.90
19224;DHT22;9746;47.180;9.776;2024-02-26T22:37:38;7.70;99.90
19224;DHT22;9746;47.180;9.776;2024-02-26T22:40:09;7.70;99.90
19224;DHT22;9746;47.180;9.776;2024-02-26T22:42:37;7.80;99.90
19224;DHT22;9746;47.180;9.776;2024-02-26T22:45:08;7.80;99.90
19224;DHT22;9746;47.180;9.776;2024-02-26T22:47:39;7.80;99.90
19224;DHT22;9746;47.180;9.776;2024-02-26T22:50:07;7.70;99.90
19224;DHT22;9746;47.180;9.776;2024-02-26T22:52:35;7.80;99.90
19224;DHT22;9746;47.180;9.776;2024-02-26T22:55:05;7.90;99.90
19224;DHT22;9746;47.180;9.776;2024-02-26T22:57:33;7.80;99.90
19224;DHT22;9746;47.180;9.776;2024-02-26T23:00:00;7.80;99.90
19224;DHT22;9746;47.180;9.776;2024-02-26T23:02:50;7.80;99.90
19224;DHT22;9746;47.180;9.776;2024-02-26T23:05:30;7.80;99.90
19224;DHT22;9746;47.180;9.776;2024-02-26T23:07:59;7.70;99.90
19224;DHT22;9746;47.180;9.776;2024-02-26T23:10:33;7.70;99.90
19224;DHT22;9746;47.180;9.776;2024-02-26T23:13:00;7.70;99.90
19224;DHT22;9746;47.180;9.776;2024-02-26T23:15:41;7.80;99.90
19224;DHT22;9746;47.180;9.776;2024-02-26T23:18:10;7.80;99.90
19224;DHT22;9746;47.180;9.776;2024-02-26T23:20:38;7.90;99.90
19224;DHT22;9746;47.180;9.776;2024-02-26T23:23:05;8.00;99.90
19224;DHT22;9746;47.180;9.776;2024-02-26T23:25:33;7.90;99.90
19224;DHT22;9746;47.180;9.776;2024-02-26T23:28:00;8.00;99.90
19224;DHT22;9746;47.180;9.776;2024-02-26T23:30:29;8.00;99.90
19224;DHT22;9746;47.180;9.776;2024-02-26T23:32:56;8.00;99.90
19224;DHT22;9746;47.180;9.776;2024-02-26T23:35:32;8.00;99.90
19224;DHT22;9746;47.180;9.776;2024-02-26T23:37:59;8.10;99.90
19224;DHT22;9746;47.180;9.776;2024-02-26T23:40:28;8.00;99.90
19224;DHT22;9746;47.180;9.776;2024-02-26T23:42:59;8.00;99.90
19224;DHT22;9746;47.180;9.776;2024-02-26T23:45:29;8.00;99.90
19224;DHT22;9746;47.180;9.776;2024-02-26T23:47:57;7.80;99.90
